Time;durP1;ratioP1;P1;durP2;ratioP2;P2;SDS_P1;SDS_P2;PMS_P1;PMS_P2;Temp;Humidity;BMP_temperature;BMP_pressure;BME280_temperature;BME280_humidity;BME280_pressure;Samples;Min_cycle;Max_cycle;Signal;HPM_P1;HPM_P2
2022/05/06 00:01:36;;;;;;;13.55;7.07;;;7.50;99.90;;;;;;5078200;28;20040;-80
2022/05/06 00:04:05;;;;;;;13.90;7.00;;;7.50;99.90;;;;;;5078842;28;20090;-80
2022/05/06 00:06:32;;;;;;;14.38;6.97;;;7.50;99.90;;;;;;5079227;28;20051;-80
2022/05/06 00:08:58;;;;;;;17.80;7.45;;;7.50;99.90;;;;;;5082526;28;20035;-80
2022/05/06 00:11:24;;;;;;;15.00;6.60;;;7.50;99.90;;;;;;5077098;28;20021;-80
2022/05/06 00:13:52;;;;;;;12.35;6.20;;;7.50;99.90;;;;;;5080147;28;20377;-80
2022/05/06 00:16:19;;;;;;;14.18;6.95;;;7.50;99.90;;;;;;5081847;28;20473;-80
2022/05/06 00:18:45;;;;;;;12.45;6.20;;;7.40;99.90;;;;;;5077038;28;20031;-80
2022/05/06 00:21:11;;;;;;;11.55;6.38;;;7.30;99.90;;;;;;5079760;28;20572;-80
2022/05/06 00:23:37;;;;;;;14.73;7.40;;;7.30;99.90;;;;;;5079976;28;20032;-80
2022/05/06 00:26:03;;;;;;;16.17;6.45;;;7.20;99.90;;;;;;5076845;28;20019;-80
2022/05/06 00:28:30;;;;;;;18.13;7.75;;;7.20;99.90;;;;;;5097182;22;20087;-75
2022/05/06 00:30:56;;;;;;;14.27;6.90;;;7.20;99.90;;;;;;5077134;28;20116;-75
2022/05/06 00:33:24;;;;;;;12.55;6.88;;;7.10;99.90;;;;;;5077741;28;20472;-74
2022/05/06 00:35:54;;;;;;;16.92;8.68;;;7.20;99.90;;;;;;5080932;28;20492;-75
2022/05/06 00:38:20;;;;;;;14.65;7.47;;;7.20;99.90;;;;;;5079974;28;20020;-75
2022/05/06 00:40:46;;;;;;;13.50;7.30;;;7.30;99.90;;;;;;5076916;28;20016;-75
2022/05/06 00:43:12;;;;;;;11.93;6.85;;;7.20;99.90;;;;;;5076416;28;20035;-75
2022/05/06 00:46:10;;;;;;;12.82;6.45;;;7.20;99.90;;;;;;5075143;28;20024;-75
2022/05/06 00:48:36;;;;;;;15.98;7.65;;;7.20;99.90;;;;;;5075480;28;20090;-75
2022/05/06 00:51:03;;;;;;;14.68;6.90;;;7.10;99.90;;;;;;5072014;28;20032;-75
2022/05/06 00:53:29;;;;;;;17.83;7.35;;;7.00;99.90;;;;;;5078212;28;20025;-75
2022/05/06 00:55:56;;;;;;;15.07;6.63;;;6.90;99.90;;;;;;5078306;28;20572;-75
2022/05/06 00:58:29;;;;;;;13.07;7.18;;;6.90;99.90;;;;;;5078252;28;20022;-74
2022/05/06 01:00:55;;;;;;;15.77;7.50;;;6.80;99.90;;;;;;5077448;28;20016;-75
2022/05/06 01:03:21;;;;;;;20.67;7.18;;;6.80;99.90;;;;;;5077775;28;20472;-74
2022/05/06 01:05:49;;;;;;;17.23;7.43;;;6.80;99.90;;;;;;5074484;28;20073;-75
2022/05/06 01:08:16;;;;;;;15.38;7.95;;;6.80;99.90;;;;;;5074980;28;20093;-75
2022/05/06 01:10:43;;;;;;;19.88;7.45;;;6.90;99.90;;;;;;5078347;28;20025;-75
2022/05/06 01:13:09;;;;;;;17.10;7.20;;;6.90;99.90;;;;;;5079997;28;20020;-75
2022/05/06 01:15:36;;;;;;;14.15;6.63;;;6.80;99.90;;;;;;5079154;28;20028;-75
2022/05/06 01:18:02;;;;;;;11.32;6.32;;;6.90;99.90;;;;;;5084968;28;20024;-74
2022/05/06 01:20:27;;;;;;;19.60;7.75;;;6.80;99.90;;;;;;5079859;28;20086;-75
2022/05/06 01:22:56;;;;;;;17.77;7.72;;;6.90;99.90;;;;;;5081819;28;20021;-75
2022/05/06 01:25:22;;;;;;;15.43;6.90;;;6.80;99.90;;;;;;5080355;28;20021;-74
2022/05/06 01:27:50;;;;;;;15.32;7.38;;;6.90;99.90;;;;;;5080584;28;20046;-75
2022/05/06 01:30:31;;;;;;;17.63;7.32;;;6.90;99.90;;;;;;5106501;22;20047;-73
2022/05/06 01:32:59;;;;;;;19.55;7.15;;;6.80;99.90;;;;;;5094432;28;20024;-73
2022/05/06 01:35:28;;;;;;;17.17;7.75;;;6.80;99.90;;;;;;5094489;28;20032;-73
2022/05/06 01:37:56;;;;;;;16.23;7.78;;;6.90;99.90;;;;;;5094536;28;20047;-73
2022/05/06 01:40:24;;;;;;;14.93;7.10;;;6.80;99.90;;;;;;5086308;28;20020;-73
2022/05/06 01:42:53;;;;;;;15.48;7.00;;;6.70;99.90;;;;;;5082367;28;20036;-73
2022/05/06 01:45:22;;;;;;;15.85;7.45;;;6.70;99.90;;;;;;5081991;28;20469;-73
2022/05/06 01:47:52;;;;;;;15.10;6.78;;;6.70;99.90;;;;;;5084716;28;20115;-73
2022/05/06 01:50:20;;;;;;;14.90;6.90;;;6.80;99.90;;;;;;5081492;28;20057;-73
2022/05/06 01:52:50;;;;;;;13.57;6.57;;;6.80;99.90;;;;;;5082836;28;20050;-72
2022/05/06 01:55:17;;;;;;;13.07;7.20;;;6.80;99.90;;;;;;5083513;28;20077;-73
2022/05/06 01:57:43;;;;;;;12.38;5.95;;;6.70;99.90;;;;;;5080947;28;20024;-73
2022/05/06 02:00:09;;;;;;;16.42;6.30;;;6.70;99.90;;;;;;5083451;28;20601;-73
2022/05/06 02:02:35;;;;;;;14.63;7.22;;;6.60;99.90;;;;;;5085002;28;20016;-73
2022/05/06 02:05:19;;;;;;;19.33;7.65;;;6.50;99.90;;;;;;5081005;28;20096;-73
2022/05/06 02:07:48;;;;;;;13.65;6.28;;;6.50;99.90;;;;;;5080778;28;20036;-73
2022/05/06 02:10:17;;;;;;;14.40;7.30;;;6.50;99.90;;;;;;5082900;28;20031;-73
2022/05/06 02:12:47;;;;;;;16.13;6.20;;;6.50;99.90;;;;;;5083323;28;20024;-73
2022/05/06 02:15:14;;;;;;;13.98;6.95;;;6.50;99.90;;;;;;5080205;28;20103;-73
2022/05/06 02:17:41;;;;;;;19.17;7.57;;;6.50;99.90;;;;;;5080301;28;20013;-73
2022/05/06 02:20:09;;;;;;;16.05;7.75;;;6.60;99.90;;;;;;5081580;28;20073;-73
2022/05/06 02:22:36;;;;;;;14.48;7.38;;;6.60;99.90;;;;;;5084310;28;20024;-73
2022/05/06 02:25:04;;;;;;;14.07;7.00;;;6.60;99.90;;;;;;5080515;28;20024;-73
2022/05/06 02:27:30;;;;;;;20.52;7.15;;;6.60;99.90;;;;;;5084088;28;20063;-73
2022/05/06 02:35:23;;;;;;;13.60;7.20;;;6.50;99.90;;;;;;5080185;28;20031;-75
2022/05/06 02:37:49;;;;;;;14.55;6.32;;;6.40;99.90;;;;;;5079183;28;20420;-75
2022/05/06 02:40:15;;;;;;;11.82;6.28;;;6.30;99.90;;;;;;5080292;28;20103;-75
2022/05/06 02:42:40;;;;;;;13.88;6.40;;;6.20;99.90;;;;;;5079929;28;20507;-75
2022/05/06 02:45:07;;;;;;;13.20;6.93;;;6.20;99.90;;;;;;5079321;28;20125;-75
2022/05/06 02:47:33;;;;;;;10.90;6.50;;;6.20;99.90;;;;;;5077127;28;20013;-75
2022/05/06 02:49:59;;;;;;;19.85;7.72;;;6.20;99.90;;;;;;5077582;28;20035;-75
2022/05/06 02:52:24;;;;;;;12.60;6.38;;;6.10;99.90;;;;;;5082274;28;20594;-76
2022/05/06 02:54:50;;;;;;;16.65;6.65;;;6.00;99.90;;;;;;5077359;28;20059;-75
2022/05/06 02:57:16;;;;;;;15.45;6.45;;;6.00;99.90;;;;;;5077531;28;20020;-75
2022/05/06 02:59:41;;;;;;;13.13;6.65;;;6.00;99.90;;;;;;5078039;28;20017;-75
2022/05/06 03:02:07;;;;;;;13.85;6.97;;;5.90;99.90;;;;;;5079857;28;20024;-75
2022/05/06 03:04:33;;;;;;;15.10;7.07;;;5.90;99.90;;;;;;5079936;28;20032;-76
2022/05/06 03:06:59;;;;;;;17.30;7.30;;;5.80;99.90;;;;;;5079024;28;20488;-75
2022/05/06 03:09:25;;;;;;;14.68;7.38;;;5.90;99.90;;;;;;5082759;28;20037;-75
2022/05/06 03:11:52;;;;;;;14.48;7.18;;;5.90;99.90;;;;;;5081753;28;20081;-76
2022/05/06 03:14:18;;;;;;;13.02;6.95;;;6.00;99.90;;;;;;5079438;28;20020;-75
2022/05/06 03:16:44;;;;;;;11.90;6.25;;;6.00;99.90;;;;;;5077583;28;20016;-75
2022/05/06 03:19:10;;;;;;;15.10;6.40;;;6.00;99.90;;;;;;5076386;28;20024;-75
2022/05/06 03:21:36;;;;;;;15.38;6.65;;;6.00;99.90;;;;;;5078838;28;20020;-75
2022/05/06 03:24:02;;;;;;;15.00;7.47;;;6.00;99.90;;;;;;5079276;28;20051;-75
2022/05/06 03:26:27;;;;;;;18.40;8.07;;;6.00;99.90;;;;;;5078270;28;20029;-75
2022/05/06 03:28:57;;;;;;;15.63;7.30;;;6.00;99.90;;;;;;5095177;23;20075;-78
2022/05/06 03:31:25;;;;;;;16.23;7.10;;;6.00;99.90;;;;;;5078547;28;20043;-79
2022/05/06 03:33:50;;;;;;;17.05;8.23;;;6.00;99.90;;;;;;5079385;28;20024;-79
2022/05/06 03:36:16;;;;;;;17.02;7.30;;;6.10;99.90;;;;;;5079610;28;20036;-79
2022/05/06 03:38:42;;;;;;;16.48;7.53;;;6.10;99.90;;;;;;5079126;28;20036;-79
2022/05/06 03:41:07;;;;;;;17.38;7.10;;;6.00;99.90;;;;;;5079181;28;20035;-79
2022/05/06 03:43:33;;;;;;;10.52;6.25;;;6.00;99.90;;;;;;5078928;28;20047;-79
2022/05/06 03:45:59;;;;;;;12.35;6.60;;;5.90;99.90;;;;;;5078584;28;20024;-79
2022/05/06 03:48:25;;;;;;;13.98;7.07;;;5.90;99.90;;;;;;5075138;28;20024;-79
2022/05/06 03:53:39;;;;;;;12.68;6.93;;;5.80;99.90;;;;;;5078862;28;20052;-79
2022/05/06 03:56:05;;;;;;;15.40;6.55;;;5.80;99.90;;;;;;5077300;28;20728;-80
2022/05/06 03:58:32;;;;;;;11.80;7.32;;;5.80;99.90;;;;;;5079073;28;20021;-80
2022/05/06 04:00:58;;;;;;;11.40;6.90;;;5.70;99.90;;;;;;5078419;28;20049;-80
2022/05/06 04:03:24;;;;;;;15.38;6.57;;;5.70;99.90;;;;;;5078897;28;20074;-80
2022/05/06 04:05:50;;;;;;;19.05;7.10;;;5.60;99.90;;;;;;5076873;28;20024;-79
2022/05/06 04:08:16;;;;;;;16.40;6.75;;;5.70;99.90;;;;;;5074300;28;20432;-79
2022/05/06 04:10:42;;;;;;;20.52;7.72;;;5.70;99.90;;;;;;5075160;28;20025;-79
2022/05/06 04:13:07;;;;;;;11.73;5.93;;;5.60;99.90;;;;;;5077779;28;20761;-79
2022/05/06 04:15:33;;;;;;;14.05;5.57;;;5.60;99.90;;;;;;5078357;28;20028;-79
2022/05/06 04:18:00;;;;;;;14.00;6.90;;;5.50;99.90;;;;;;5078587;28;20449;-79
2022/05/06 04:23:29;;;;;;;14.35;7.05;;;5.50;99.90;;;;;;5083632;28;20145;-79
2022/05/06 04:26:01;;;;;;;15.02;6.05;;;5.50;99.90;;;;;;5077324;28;20028;-80
2022/05/06 04:31:01;;;;;;;12.10;7.18;;;5.50;99.90;;;;;;5016615;28;20446;-75
2022/05/06 04:33:28;;;;;;;12.77;6.45;;;5.60;99.90;;;;;;5012119;28;20064;-74
2022/05/06 04:35:55;;;;;;;17.13;7.70;;;5.60;99.90;;;;;;5011860;28;20025;-75
2022/05/06 04:38:22;;;;;;;16.33;7.47;;;5.50;99.90;;;;;;5011604;28;20021;-75
2022/05/06 04:40:49;;;;;;;16.20;7.32;;;5.50;99.90;;;;;;5031196;28;20029;-75
2022/05/06 04:43:18;;;;;;;18.10;5.82;;;5.60;99.90;;;;;;5015842;28;20026;-73
2022/05/06 04:45:44;;;;;;;14.10;6.97;;;5.60;99.90;;;;;;5031101;28;20516;-74
2022/05/06 04:48:11;;;;;;;12.73;6.07;;;5.60;99.90;;;;;;5031008;28;20021;-74
2022/05/06 04:50:38;;;;;;;16.35;7.40;;;5.60;99.90;;;;;;5029764;28;20029;-75
2022/05/06 04:53:07;;;;;;;15.65;7.25;;;5.60;99.90;;;;;;5031431;28;20014;-75
2022/05/06 04:55:40;;;;;;;14.57;6.78;;;5.70;99.90;;;;;;5016039;28;20068;-75
2022/05/06 04:58:07;;;;;;;13.80;7.35;;;5.80;99.90;;;;;;5031458;28;20009;-75
2022/05/06 05:00:33;;;;;;;11.30;6.25;;;5.80;99.90;;;;;;5016139;28;20033;-75
2022/05/06 05:03:00;;;;;;;14.25;5.50;;;5.80;99.90;;;;;;5031251;28;20025;-75
2022/05/06 05:05:26;;;;;;;17.08;7.30;;;5.90;99.90;;;;;;5031281;28;20061;-75
2022/05/06 05:07:53;;;;;;;15.20;6.80;;;5.90;99.90;;;;;;5031233;28;20060;-75
2022/05/06 05:10:19;;;;;;;13.38;6.03;;;5.90;99.90;;;;;;5037972;28;20063;-75
2022/05/06 05:12:44;;;;;;;12.32;6.13;;;5.90;99.90;;;;;;5016070;28;20029;-74
2022/05/06 05:15:10;;;;;;;14.38;7.75;;;6.00;99.90;;;;;;5030866;28;20029;-75
2022/05/06 05:17:36;;;;;;;15.20;6.97;;;6.00;99.90;;;;;;5030728;28;20063;-75
2022/05/06 05:20:03;;;;;;;13.23;6.32;;;6.10;99.90;;;;;;5031267;28;20099;-75
2022/05/06 05:22:31;;;;;;;17.38;7.90;;;6.20;99.90;;;;;;5031824;28;20034;-75
2022/05/06 05:24:57;;;;;;;23.90;8.68;;;6.20;99.90;;;;;;5030611;28;20014;-74
2022/05/06 05:27:23;;;;;;;21.48;8.98;;;6.30;99.90;;;;;;5030696;28;20052;-75
2022/05/06 05:29:48;;;;;;;19.30;9.70;;;6.40;99.90;;;;;;5054045;23;20044;-78
2022/05/06 05:32:14;;;;;;;18.02;7.55;;;6.50;99.90;;;;;;5043407;28;20374;-78
2022/05/06 05:34:42;;;;;;;15.77;8.13;;;6.60;99.90;;;;;;5049175;28;20090;-78
2022/05/06 05:37:09;;;;;;;14.90;7.93;;;6.70;99.90;;;;;;5049588;28;20482;-78
2022/05/06 05:39:35;;;;;;;16.65;7.30;;;6.80;99.90;;;;;;5055908;28;20109;-78
2022/05/06 05:42:03;;;;;;;17.90;6.50;;;6.90;99.90;;;;;;5064163;28;20079;-78
2022/05/06 05:49:57;;;;;;;15.50;7.93;;;7.20;99.90;;;;;;5059640;28;20065;-78
2022/05/06 05:52:23;;;;;;;18.80;7.50;;;7.40;99.90;;;;;;5061363;28;20017;-78
2022/05/06 05:54:49;;;;;;;13.23;6.82;;;7.50;99.90;;;;;;5060361;28;20078;-80
2022/05/06 05:57:14;;;;;;;11.40;6.55;;;7.50;99.90;;;;;;5063419;28;20025;-80
2022/05/06 05:59:41;;;;;;;15.88;7.35;;;7.70;99.90;;;;;;5073881;28;20017;-80
2022/05/06 06:02:08;;;;;;;15.63;7.55;;;7.80;99.90;;;;;;5063197;28;20024;-80
2022/05/06 06:04:34;;;;;;;19.20;6.82;;;8.00;99.90;;;;;;5066139;28;20749;-80
2022/05/06 06:06:59;;;;;;;13.82;6.30;;;8.40;99.90;;;;;;5061707;28;20032;-79
2022/05/06 06:09:27;;;;;;;11.85;6.55;;;8.70;99.90;;;;;;5067373;28;20098;-80
2022/05/06 06:11:52;;;;;;;13.70;6.53;;;9.20;99.90;;;;;;5062741;28;20013;-80
2022/05/06 06:14:18;;;;;;;12.75;5.68;;;9.70;99.90;;;;;;5061217;28;20025;-79
2022/05/06 06:16:44;;;;;;;13.15;6.75;;;10.00;99.90;;;;;;5065673;28;20023;-79
2022/05/06 06:19:10;;;;;;;8.30;5.60;;;10.20;99.90;;;;;;5062516;28;20478;-78
2022/05/06 06:21:36;;;;;;;11.23;5.80;;;10.30;99.90;;;;;;5061813;28;20023;-80
2022/05/06 06:24:02;;;;;;;11.45;6.35;;;10.70;99.90;;;;;;5065846;28;20028;-78
2022/05/06 06:26:28;;;;;;;10.40;5.65;;;10.90;99.90;;;;;;5061817;28;20009;-78
2022/05/06 06:28:54;;;;;;;9.65;5.95;;;11.10;99.90;;;;;;5078167;22;20047;-73
2022/05/06 06:31:20;;;;;;;8.30;5.03;;;11.10;99.90;;;;;;5069385;28;20047;-73
2022/05/06 06:33:46;;;;;;;9.15;5.13;;;11.10;99.90;;;;;;5063987;28;20013;-77
2022/05/06 06:36:12;;;;;;;9.05;5.55;;;11.10;99.90;;;;;;5063657;28;20025;-77
2022/05/06 06:38:37;;;;;;;8.13;5.35;;;11.20;99.90;;;;;;5071685;28;20059;-77
2022/05/06 06:41:04;;;;;;;8.30;5.85;;;11.20;99.90;;;;;;5091712;28;20733;-76
2022/05/06 06:43:29;;;;;;;9.27;5.07;;;11.20;99.90;;;;;;5091855;28;20027;-77
2022/05/06 06:45:56;;;;;;;9.05;5.50;;;11.30;99.90;;;;;;5092217;28;20012;-75
2022/05/06 06:48:24;;;;;;;7.05;5.07;;;11.60;99.90;;;;;;5090462;28;20074;-75
2022/05/06 06:50:50;;;;;;;8.63;5.15;;;11.70;99.90;;;;;;5091326;28;20027;-76
2022/05/06 06:53:16;;;;;;;10.00;5.68;;;11.70;99.90;;;;;;5091803;28;20020;-75
2022/05/06 06:55:41;;;;;;;10.48;6.03;;;11.80;99.90;;;;;;5092799;28;20069;-75
2022/05/06 06:58:07;;;;;;;12.43;5.75;;;11.90;99.90;;;;;;5091328;28;20107;-77
2022/05/06 07:00:33;;;;;;;10.32;6.57;;;12.00;99.90;;;;;;5082916;28;20392;-75
2022/05/06 07:02:59;;;;;;;9.52;5.70;;;12.10;99.90;;;;;;5091926;28;20433;-75
2022/05/06 07:05:25;;;;;;;7.78;5.70;;;12.20;99.90;;;;;;5091297;28;20441;-78
2022/05/06 07:11:52;;;;;;;9.15;5.82;;;12.30;99.90;;;;;;5091360;28;20039;-79
2022/05/06 07:13:23;;;;;;;10.23;5.85;;;12.40;99.90;;;;;;5090823;28;20024;-81
2022/05/06 07:15:49;;;;;;;11.65;6.45;;;12.60;99.90;;;;;;5091116;28;20032;-80
2022/05/06 07:18:15;;;;;;;11.75;5.95;;;12.70;99.90;;;;;;5088577;28;20052;-80
2022/05/06 07:20:42;;;;;;;12.77;6.68;;;12.90;99.90;;;;;;5091532;28;20032;-80
2022/05/06 07:23:08;;;;;;;13.75;7.72;;;12.90;99.90;;;;;;5091410;28;20023;-79
2022/05/06 07:25:34;;;;;;;14.93;8.52;;;13.00;99.90;;;;;;5091577;28;20030;-80
2022/05/06 07:28:00;;;;;;;13.77;7.00;;;13.10;99.90;;;;;;5091314;28;20020;-80
2022/05/06 07:30:26;;;;;;;14.23;7.78;;;13.20;99.90;;;;;;5100999;23;20063;-84
2022/05/06 07:32:51;;;;;;;13.55;7.35;;;13.20;99.90;;;;;;5071197;28;20020;-85
2022/05/06 07:35:17;;;;;;;13.25;7.50;;;13.30;99.90;;;;;;5070487;28;20021;-85
2022/05/06 07:37:43;;;;;;;15.77;7.50;;;13.40;99.90;;;;;;5072293;28;20028;-84
2022/05/06 07:40:10;;;;;;;13.82;7.68;;;13.50;99.90;;;;;;5085126;28;20103;-93
2022/05/06 07:42:37;;;;;;;12.43;7.35;;;13.70;99.90;;;;;;5091636;28;20074;-87
2022/05/06 07:45:04;;;;;;;14.10;6.90;;;13.80;99.90;;;;;;5091075;28;20046;-86
2022/05/06 07:47:29;;;;;;;12.02;6.65;;;13.90;99.90;;;;;;5084683;28;20031;-87
2022/05/06 07:49:55;;;;;;;11.93;6.63;;;14.10;99.90;;;;;;5089523;28;20028;-87
2022/05/06 07:52:21;;;;;;;9.35;6.32;;;14.20;99.90;;;;;;5084227;28;20100;-86
2022/05/06 07:54:46;;;;;;;13.13;7.05;;;14.40;99.90;;;;;;5091675;28;20020;-87
2022/05/06 07:57:12;;;;;;;12.20;7.07;;;14.50;99.90;;;;;;5091355;28;20023;-86
2022/05/06 07:59:38;;;;;;;14.35;7.13;;;14.60;99.90;;;;;;5089943;28;20032;-86
2022/05/06 08:04:50;;;;;;;12.45;6.40;;;14.90;99.90;;;;;;5084434;28;20023;-87
2022/05/06 08:07:17;;;;;;;18.17;7.32;;;15.00;99.90;;;;;;5091162;28;20016;-87
2022/05/06 08:09:43;;;;;;;15.23;7.20;;;15.20;99.90;;;;;;5089252;28;20043;-87
2022/05/06 08:12:09;;;;;;;12.70;6.00;;;15.30;99.90;;;;;;5091454;28;20118;-87
2022/05/06 08:14:36;;;;;;;12.35;6.32;;;15.40;99.90;;;;;;5090917;28;20349;-87
2022/05/06 08:17:02;;;;;;;10.57;5.93;;;15.50;99.90;;;;;;5083631;28;20031;-86
2022/05/06 08:19:28;;;;;;;9.52;5.82;;;15.70;99.90;;;;;;5090163;28;20028;-87
2022/05/06 08:21:55;;;;;;;10.77;6.07;;;15.80;99.90;;;;;;5090455;28;20031;-86
2022/05/06 08:24:21;;;;;;;10.63;5.75;;;16.00;99.90;;;;;;5089153;28;20404;-87
2022/05/06 08:26:48;;;;;;;11.13;6.15;;;16.10;99.90;;;;;;5090866;28;20012;-85
2022/05/06 08:29:14;;;;;;;15.48;6.78;;;16.20;99.90;;;;;;5106164;23;21197;-80
2022/05/06 08:31:40;;;;;;;11.35;6.10;;;16.40;99.90;;;;;;5071579;28;20068;-80
2022/05/06 08:34:10;;;;;;;13.13;6.80;;;16.50;99.90;;;;;;5071935;28;20025;-80
2022/05/06 08:36:38;;;;;;;13.32;7.88;;;16.60;99.90;;;;;;5065471;28;20032;-80
2022/05/06 08:39:05;;;;;;;13.00;6.18;;;16.70;99.90;;;;;;5067421;28;20040;-80
2022/05/06 08:41:31;;;;;;;16.60;7.25;;;16.90;99.90;;;;;;5051520;28;20025;-80
2022/05/06 08:43:58;;;;;;;11.38;6.05;;;17.20;99.90;;;;;;5057184;28;20029;-80
2022/05/06 08:51:58;;;;;;;11.15;5.65;;;19.90;99.90;;;;;;5058782;28;20027;-80
2022/05/06 08:54:23;;;;;;;10.02;6.25;;;20.80;99.90;;;;;;5051409;28;20020;-80
2022/05/06 08:56:49;;;;;;;11.07;6.47;;;21.70;98.30;;;;;;5051862;28;20017;-80
2022/05/06 08:59:15;;;;;;;9.70;4.75;;;22.60;94.00;;;;;;5050974;28;20028;-80
2022/05/06 09:01:41;;;;;;;7.60;3.88;;;22.90;85.50;;;;;;5051495;28;20029;-81
2022/05/06 09:04:07;;;;;;;6.68;3.50;;;23.70;82.70;;;;;;5051401;28;20017;-81
2022/05/06 09:06:34;;;;;;;7.15;4.15;;;24.00;78.90;;;;;;5051286;28;20513;-81
2022/05/06 09:09:00;;;;;;;7.03;3.90;;;24.70;72.50;;;;;;5049705;28;20032;-81
2022/05/06 09:14:20;;;;;;;6.50;3.45;;;24.80;66.80;;;;;;5051346;28;20121;-81
2022/05/06 09:16:46;;;;;;;8.48;3.67;;;24.70;67.80;;;;;;5051192;28;20025;-81
2022/05/06 09:19:20;;;;;;;7.13;3.50;;;24.40;66.30;;;;;;5044324;28;20028;-83
2022/05/06 09:21:59;;;;;;;8.30;4.28;;;23.70;69.40;;;;;;5051446;28;20022;-82
2022/05/06 09:24:28;;;;;;;8.68;4.07;;;23.80;67.60;;;;;;5051374;28;20096;-83
2022/05/06 09:27:11;;;;;;;7.75;3.47;;;23.80;65.70;;;;;;5051433;28;20533;-83
2022/05/06 09:29:51;;;;;;;6.45;3.70;;;24.20;64.30;;;;;;5085347;23;20061;-87
2022/05/06 09:32:23;;;;;;;10.35;4.07;;;24.50;64.70;;;;;;5053138;28;20017;-86
2022/05/06 09:35:09;;;;;;;7.82;3.85;;;25.10;63.80;;;;;;5036607;28;20485;-86
2022/05/06 09:37:44;;;;;;;9.38;4.10;;;25.60;60.50;;;;;;5048923;28;20029;-85
2022/05/06 09:40:30;;;;;;;5.18;3.22;;;26.40;58.70;;;;;;5047582;28;20041;-87
2022/05/06 09:42:59;;;;;;;6.18;2.90;;;27.00;55.10;;;;;;5048050;28;20108;-88
2022/05/06 09:45:39;;;;;;;8.18;3.50;;;27.00;55.30;;;;;;5054180;28;20123;-85
2022/05/06 09:48:09;;;;;;;6.38;3.25;;;26.90;55.30;;;;;;5053944;28;20025;-85
2022/05/06 09:50:34;;;;;;;5.10;3.05;;;27.30;54.10;;;;;;5053301;28;20036;-87
2022/05/06 09:53:05;;;;;;;5.95;2.55;;;27.70;51.70;;;;;;5054418;28;20466;-88
2022/05/06 09:55:31;;;;;;;6.55;2.53;;;27.70;52.00;;;;;;5053946;28;20021;-86
2022/05/06 09:57:59;;;;;;;2.90;1.90;;;27.70;51.50;;;;;;5036161;28;20098;-87
2022/05/06 10:00:26;;;;;;;6.70;2.70;;;27.90;47.40;;;;;;5053694;28;20064;-88
2022/05/06 10:02:51;;;;;;;4.90;2.53;;;28.10;48.40;;;;;;5036023;28;20171;-86
2022/05/06 10:05:17;;;;;;;5.03;2.50;;;27.80;48.60;;;;;;5053674;28;20524;-85
2022/05/06 10:07:44;;;;;;;5.25;2.50;;;28.20;48.50;;;;;;5053948;28;20040;-85
2022/05/06 10:10:16;;;;;;;4.72;2.28;;;28.40;47.50;;;;;;5054131;28;20025;-86
2022/05/06 10:12:46;;;;;;;2.95;1.85;;;28.90;44.20;;;;;;5053890;28;20013;-87
2022/05/06 10:15:13;;;;;;;4.55;1.95;;;28.90;42.80;;;;;;5053379;28;20025;-86
2022/05/06 10:17:54;;;;;;;4.65;2.05;;;29.40;40.30;;;;;;5053484;28;20032;-86
2022/05/06 10:20:38;;;;;;;5.35;1.73;;;29.80;42.80;;;;;;5048682;28;20033;-86
2022/05/06 10:23:07;;;;;;;2.55;1.25;;;29.90;40.80;;;;;;5048876;28;20016;-87
2022/05/06 10:25:48;;;;;;;4.70;1.80;;;30.10;38.70;;;;;;5046537;28;20025;-86
2022/05/06 10:34:14;;;;;;;4.10;1.75;;;30.80;38.50;;;;;;5070164;28;20042;-83
2022/05/06 10:36:44;;;;;;;6.05;1.80;;;30.70;39.10;;;;;;5079551;28;20020;-82
2022/05/06 10:39:36;;;;;;;3.63;1.60;;;31.20;37.10;;;;;;5080859;28;20024;-82
2022/05/06 10:42:10;;;;;;;4.05;1.45;;;31.80;36.90;;;;;;5066677;28;20027;-83
2022/05/06 10:44:44;;;;;;;3.38;1.58;;;32.60;35.40;;;;;;5080737;28;20528;-83
2022/05/06 10:47:12;;;;;;;2.85;1.27;;;32.40;35.00;;;;;;5073651;28;20125;-82
2022/05/06 10:49:38;;;;;;;4.47;1.85;;;31.10;35.60;;;;;;5073626;28;20032;-83
2022/05/06 10:52:16;;;;;;;2.92;1.60;;;31.20;35.90;;;;;;5072120;28;20016;-83
2022/05/06 10:54:44;;;;;;;3.95;1.48;;;30.90;37.40;;;;;;5067063;28;20055;-83
2022/05/06 10:57:10;;;;;;;3.88;1.20;;;31.20;36.80;;;;;;5073715;28;20028;-84
2022/05/06 10:59:49;;;;;;;2.40;1.70;;;31.20;35.70;;;;;;5073399;28;20036;-84
2022/05/06 11:02:16;;;;;;;4.45;1.63;;;30.90;35.00;;;;;;5073500;28;20020;-83
2022/05/06 11:04:51;;;;;;;3.22;1.52;;;30.60;36.30;;;;;;5073306;28;20020;-84
2022/05/06 11:07:17;;;;;;;4.50;1.98;;;31.00;36.20;;;;;;5073161;28;20025;-82
2022/05/06 11:09:43;;;;;;;5.93;1.88;;;30.90;36.60;;;;;;5073192;28;20369;-83
2022/05/06 11:12:09;;;;;;;2.42;1.75;;;31.40;37.80;;;;;;5080108;28;20124;-82
2022/05/06 11:14:35;;;;;;;3.22;1.52;;;30.80;37.10;;;;;;5073425;28;20540;-82
2022/05/06 11:17:19;;;;;;;2.58;1.27;;;31.30;36.60;;;;;;5073407;28;20086;-82
2022/05/06 11:19:45;;;;;;;1.63;1.15;;;31.40;36.00;;;;;;5071623;28;20066;-83
2022/05/06 11:22:11;;;;;;;2.88;1.10;;;31.80;33.30;;;;;;5072662;28;20066;-84
2022/05/06 11:24:37;;;;;;;1.63;1.02;;;31.70;32.60;;;;;;5073007;28;20031;-83
2022/05/06 11:27:19;;;;;;;0.82;0.60;;;31.30;32.60;;;;;;5073168;28;20419;-84
2022/05/06 11:29:49;;;;;;;1.08;0.65;;;30.50;32.60;;;;;;5083417;23;20544;-84
2022/05/06 11:32:16;;;;;;;1.27;0.70;;;30.10;33.60;;;;;;5032026;28;20025;-84
2022/05/06 11:35:07;;;;;;;2.35;1.20;;;30.30;32.20;;;;;;5031809;28;20028;-85
2022/05/06 11:37:34;;;;;;;2.97;1.13;;;29.60;34.20;;;;;;5030496;28;20080;-84
2022/05/06 11:40:32;;;;;;;1.95;1.02;;;30.00;34.30;;;;;;5030957;28;20041;-86
2022/05/06 11:42:59;;;;;;;4.20;1.83;;;29.90;34.40;;;;;;5026842;28;20017;-87
2022/05/06 11:48:10;;;;;;;3.00;2.05;;;28.70;35.60;;;;;;5031633;28;20041;-86
2022/05/06 11:50:37;;;;;;;3.60;2.13;;;28.50;35.70;;;;;;5031897;28;20019;-87
2022/05/06 11:53:14;;;;;;;2.00;1.25;;;29.70;36.90;;;;;;5030417;28;20022;-86
2022/05/06 11:55:46;;;;;;;3.85;1.52;;;30.40;34.60;;;;;;5026383;28;20470;-86
2022/05/06 11:58:13;;;;;;;;;;;31.20;34.40;;;;;;5032306;28;20034;-88
2022/05/06 12:00:40;;;;;;;2.05;1.48;;;32.10;33.40;;;;;;5030206;28;19913;-86
2022/05/06 12:03:07;;;;;;;2.28;1.63;;;31.50;30.60;;;;;;5030373;28;20025;-86
2022/05/06 12:05:37;;;;;;;3.15;1.90;;;32.20;32.10;;;;;;5025016;28;20390;-84
2022/05/06 12:08:03;;;;;;;2.70;1.85;;;30.60;30.90;;;;;;5031480;28;20010;-84
2022/05/06 12:10:32;;;;;;;3.92;1.80;;;31.00;34.90;;;;;;5031728;28;20623;-85
2022/05/06 12:12:59;;;;;;;3.58;1.88;;;32.10;33.80;;;;;;5031549;28;20474;-84
2022/05/06 12:15:33;;;;;;;2.65;2.13;;;31.50;32.70;;;;;;5030989;28;20024;-87
2022/05/06 12:18:09;;;;;;;3.67;2.30;;;30.80;32.90;;;;;;5029652;28;20025;-84
2022/05/06 12:20:40;;;;;;;3.75;2.55;;;30.80;33.80;;;;;;5031174;28;20034;-85
2022/05/06 12:23:07;;;;;;;5.55;3.35;;;29.60;35.50;;;;;;5031214;28;20550;-86
2022/05/06 12:25:38;;;;;;;4.55;2.65;;;29.80;35.80;;;;;;5031215;28;20021;-84
2022/05/06 12:28:13;;;;;;;;;;;30.10;36.20;;;;;;5031248;28;20016;-85
2022/05/06 12:30:39;;;;;;;3.95;2.55;;;30.30;37.10;;;;;;5031240;28;19943;-86
2022/05/06 12:33:08;;;;;;;3.35;2.22;;;30.80;36.70;;;;;;5029779;28;20363;-85
2022/05/06 12:36:01;;;;;;;3.30;2.28;;;30.70;35.50;;;;;;5031700;28;20036;-84
2022/05/06 12:38:48;;;;;;;2.97;2.22;;;31.30;35.20;;;;;;5024747;28;20033;-84
2022/05/06 12:41:33;;;;;;;3.28;2.25;;;31.00;37.20;;;;;;5026707;28;20057;-85
2022/05/06 12:44:15;;;;;;;3.45;2.28;;;31.90;35.00;;;;;;5027464;28;20013;-84
2022/05/06 12:46:41;;;;;;;5.75;2.80;;;32.20;37.60;;;;;;5025663;28;20026;-85
2022/05/06 12:51:51;;;;;;;4.72;2.50;;;31.50;35.80;;;;;;5027462;28;20121;-84
2022/05/06 12:54:17;;;;;;;4.40;2.55;;;31.60;37.20;;;;;;5029958;28;20112;-86
2022/05/06 12:56:42;;;;;;;4.60;2.70;;;32.50;36.00;;;;;;5028116;28;20021;-83
2022/05/06 12:59:08;;;;;;;3.63;2.67;;;31.00;36.60;;;;;;5028744;28;20029;-83
2022/05/06 13:01:34;;;;;;;2.53;2.30;;;31.10;39.30;;;;;;5030861;28;20072;-83
2022/05/06 13:04:00;;;;;;;4.35;2.88;;;31.40;37.70;;;;;;5030060;28;20025;-86
2022/05/06 13:06:27;;;;;;;5.40;3.13;;;30.80;38.70;;;;;;5030458;28;20100;-83
2022/05/06 13:08:52;;;;;;;5.00;3.13;;;30.90;38.50;;;;;;5030229;28;20560;-85
2022/05/06 13:11:18;;;;;;;5.00;2.80;;;31.40;37.70;;;;;;5030439;28;20025;-84
2022/05/06 13:13:44;;;;;;;4.38;3.20;;;30.80;36.90;;;;;;5030550;28;20377;-85
2022/05/06 13:16:11;;;;;;;5.35;2.83;;;29.50;38.60;;;;;;5030084;28;20089;-83
2022/05/06 13:18:37;;;;;;;3.95;2.60;;;28.40;40.20;;;;;;5030429;28;20569;-84
2022/05/06 13:21:03;;;;;;;5.03;2.83;;;28.40;41.00;;;;;;5029639;28;20089;-84
2022/05/06 13:23:30;;;;;;;5.75;2.92;;;29.30;40.20;;;;;;5027391;28;20044;-83
2022/05/06 13:25:56;;;;;;;4.70;2.80;;;28.70;39.80;;;;;;5029064;28;20037;-84
2022/05/06 13:28:22;;;;;;;6.10;3.17;;;28.90;41.90;;;;;;5027838;28;20063;-85
2022/05/06 13:30:48;;;;;;;4.68;2.65;;;30.00;39.90;;;;;;5021531;28;20501;-83
2022/05/06 13:33:13;;;;;;;4.80;2.58;;;30.60;40.80;;;;;;5021687;28;20441;-84
2022/05/06 13:35:39;;;;;;;4.22;2.50;;;31.60;37.50;;;;;;5034993;28;20018;-83